createdAt,value
2023-04-30T00:00:43.490Z,22.93
2023-04-30T00:03:13.746Z,17.73
2023-04-30T00:05:42.463Z,20.50
2023-04-30T00:08:11.258Z,19.03
2023-04-30T00:10:39.918Z,21.07
2023-04-30T00:13:10.340Z,23.67
2023-04-30T00:15:39.030Z,19.77
2023-04-30T00:18:08.204Z,22.83
2023-04-30T00:20:38.380Z,22.50
2023-04-30T00:23:07.057Z,19.10
2023-04-30T00:25:36.473Z,18.80
2023-04-30T00:28:05.386Z,18.70
2023-04-30T00:30:34.065Z,21.73
2023-04-30T00:33:02.939Z,18.27
2023-04-30T00:35:31.763Z,19.20
2023-04-30T00:38:02.088Z,19.30
2023-04-30T00:40:31.822Z,17.53
2023-04-30T00:43:00.647Z,17.67
2023-04-30T00:45:29.288Z,19.50
2023-04-30T00:47:58.220Z,19.07
2023-04-30T00:50:27.435Z,16.93
2023-04-30T00:53:07.330Z,19.87
2023-04-30T00:55:36.612Z,19.67
2023-04-30T00:58:05.368Z,20.93
2023-04-30T01:00:35.555Z,20.50
2023-04-30T01:03:05.317Z,17.83
2023-04-30T01:05:33.980Z,19.43
2023-04-30T01:08:04.205Z,17.97
2023-04-30T01:10:43.988Z,22.03
2023-04-30T01:13:24.011Z,22.80
2023-04-30T01:16:04.301Z,18.60
2023-04-30T01:18:43.360Z,19.00
2023-04-30T01:21:13.664Z,16.63
2023-04-30T01:24:16.858Z,22.10
2023-04-30T01:27:04.658Z,20.03
2023-04-30T01:29:37.700Z,21.43
2023-04-30T01:32:06.610Z,22.33
2023-04-30T01:34:35.326Z,20.37
2023-04-30T01:37:20.781Z,21.17
2023-04-30T01:40:10.774Z,20.27
2023-04-30T01:43:00.350Z,22.67
2023-04-30T01:45:58.817Z,17.97
2023-04-30T01:48:44.900Z,18.07
2023-04-30T01:51:26.407Z,17.97
2023-04-30T01:54:02.361Z,17.57
2023-04-30T01:56:38.566Z,20.47
2023-04-30T01:59:09.734Z,16.73
2023-04-30T02:01:41.022Z,17.63
2023-04-30T02:04:09.879Z,15.73
2023-04-30T02:06:38.841Z,16.20
2023-04-30T02:09:07.926Z,17.93
2023-04-30T02:11:38.589Z,17.10
2023-04-30T02:14:07.561Z,15.33
2023-04-30T02:16:36.305Z,17.13
2023-04-30T02:19:06.501Z,16.30
2023-04-30T02:21:35.390Z,16.43
2023-04-30T02:24:04.074Z,16.27
2023-04-30T02:26:32.993Z,14.53
2023-04-30T02:29:01.690Z,13.17
2023-04-30T02:31:30.652Z,14.17
2023-04-30T02:33:59.346Z,12.23
2023-04-30T02:36:29.420Z,14.27
2023-04-30T02:38:58.630Z,13.83
2023-04-30T02:41:27.579Z,11.43
2023-04-30T02:43:56.666Z,13.70
2023-04-30T02:46:25.466Z,13.20
2023-04-30T02:48:54.117Z,12.90
2023-04-30T02:51:22.869Z,15.33
2023-04-30T02:53:52.978Z,12.30
2023-04-30T02:56:21.686Z,12.00
2023-04-30T02:58:50.506Z,11.83
2023-04-30T03:01:19.170Z,14.07
2023-04-30T03:03:47.957Z,13.27
2023-04-30T03:06:16.981Z,14.03
2023-04-30T03:08:45.850Z,9.97
2023-04-30T03:11:16.258Z,13.73
2023-04-30T03:13:45.879Z,13.10
2023-04-30T03:16:14.740Z,11.30
2023-04-30T03:18:43.423Z,10.37
2023-04-30T03:21:12.478Z,13.07
2023-04-30T03:23:41.551Z,11.73
2023-04-30T03:26:10.392Z,10.77
2023-04-30T03:28:40.801Z,10.60
2023-04-30T03:31:09.507Z,12.27
2023-04-30T03:33:38.457Z,11.07
2023-04-30T03:36:07.740Z,10.40
2023-04-30T03:38:36.432Z,11.00
2023-04-30T03:41:05.242Z,10.20
2023-04-30T03:43:35.126Z,10.23
2023-04-30T03:46:05.395Z,10.43
2023-04-30T03:48:36.785Z,9.63
2023-04-30T03:51:12.722Z,10.40
2023-04-30T03:53:41.803Z,8.87
2023-04-30T03:56:10.662Z,10.90
2023-04-30T03:58:39.451Z,12.00
2023-04-30T04:01:09.667Z,11.23
2023-04-30T04:03:39.183Z,13.70
2023-04-30T04:06:08.429Z,13.23
2023-04-30T04:08:37.622Z,12.00
2023-04-30T04:11:07.446Z,10.60
2023-04-30T04:13:36.783Z,13.43
2023-04-30T04:16:07.223Z,12.00
2023-04-30T04:18:37.986Z,11.00
2023-04-30T04:21:08.035Z,9.43
2023-04-30T04:23:37.412Z,12.60
2023-04-30T04:26:06.233Z,9.00
2023-04-30T04:28:35.504Z,11.50
2023-04-30T04:31:05.313Z,12.80
2023-04-30T04:33:34.484Z,11.07
2023-04-30T04:36:05.589Z,12.23
2023-04-30T04:38:35.057Z,12.53
2023-04-30T04:41:05.554Z,10.13
2023-04-30T04:43:34.651Z,11.73
2023-04-30T04:46:04.480Z,9.97
2023-04-30T04:48:33.626Z,10.43
2023-04-30T04:51:04.275Z,11.17
2023-04-30T04:53:34.857Z,8.67
2023-04-30T04:56:04.649Z,13.20
2023-04-30T04:58:34.030Z,7.53
2023-04-30T05:01:06.236Z,9.73
2023-04-30T05:03:37.150Z,9.43
2023-04-30T05:06:08.881Z,8.00
2023-04-30T05:08:38.645Z,9.63
2023-04-30T05:11:07.633Z,9.43
2023-04-30T05:13:36.304Z,8.13
2023-04-30T05:16:06.565Z,8.37
2023-04-30T05:18:35.710Z,9.97
2023-04-30T05:21:06.241Z,6.73
2023-04-30T05:23:35.342Z,11.47
2023-04-30T05:26:05.692Z,11.53
2023-04-30T05:28:35.804Z,11.47
2023-04-30T05:31:04.956Z,8.77
2023-04-30T05:33:33.994Z,8.50
2023-04-30T05:36:03.177Z,8.23
2023-04-30T05:38:33.539Z,8.63
2023-04-30T05:41:02.686Z,8.13
2023-04-30T05:43:32.548Z,7.43
2023-04-30T05:46:01.912Z,8.23
2023-04-30T05:48:32.067Z,8.50
2023-04-30T05:51:02.505Z,7.67
2023-04-30T05:53:33.644Z,9.27
2023-04-30T05:56:03.132Z,9.63
2023-04-30T05:58:32.890Z,9.97
2023-04-30T06:01:02.030Z,9.30
2023-04-30T06:03:31.081Z,8.63
2023-04-30T06:06:00.585Z,9.57
2023-04-30T06:08:29.761Z,11.00
2023-04-30T06:11:00.665Z,9.17
2023-04-30T06:13:29.784Z,7.27
2023-04-30T06:15:59.012Z,10.93
2023-04-30T06:18:29.404Z,10.07
2023-04-30T06:20:58.463Z,9.67
2023-04-30T06:23:27.451Z,19.80
2023-04-30T06:25:56.589Z,10.03
2023-04-30T06:28:27.378Z,10.67
2023-04-30T06:30:56.666Z,8.07
2023-04-30T06:33:25.487Z,11.00
2023-04-30T06:35:55.710Z,7.40
2023-04-30T06:38:24.680Z,7.77
2023-04-30T06:40:58.095Z,6.53
2023-04-30T06:43:28.799Z,10.67
2023-04-30T06:45:57.680Z,8.37
2023-04-30T06:48:27.201Z,8.67
2023-04-30T06:50:58.117Z,12.10
2023-04-30T06:53:27.171Z,10.13
2023-04-30T06:55:56.193Z,6.73
2023-04-30T06:58:25.219Z,11.30
2023-04-30T07:00:56.000Z,8.37
2023-04-30T07:03:26.489Z,8.37
2023-04-30T07:05:55.693Z,8.33
2023-04-30T07:08:24.886Z,8.87
2023-04-30T07:11:00.440Z,9.47
2023-04-30T07:13:29.691Z,8.03
2023-04-30T07:16:00.931Z,7.73
2023-04-30T07:18:31.734Z,7.67
2023-04-30T07:21:06.564Z,8.20
2023-04-30T07:23:35.803Z,9.53
2023-04-30T07:26:05.520Z,6.63
2023-04-30T07:28:34.753Z,6.50
2023-04-30T07:31:07.844Z,9.37
2023-04-30T07:33:38.708Z,12.23
2023-04-30T07:36:08.615Z,9.03
2023-04-30T07:38:42.842Z,9.97
2023-04-30T07:41:15.233Z,13.67
2023-04-30T07:43:49.043Z,16.30
2023-04-30T07:46:19.835Z,7.57
2023-04-30T07:48:49.495Z,7.40
2023-04-30T07:51:23.434Z,10.63
2023-04-30T07:53:54.694Z,9.73
2023-04-30T07:56:31.784Z,9.93
2023-04-30T07:59:03.390Z,11.83
2023-04-30T08:01:34.029Z,16.47
2023-04-30T08:04:03.370Z,9.73
2023-04-30T08:06:34.877Z,12.43
2023-04-30T08:09:05.033Z,7.33
2023-04-30T08:11:34.772Z,8.83
2023-04-30T08:14:04.810Z,6.07
2023-04-30T08:16:39.780Z,8.07
2023-04-30T08:19:11.499Z,6.87
2023-04-30T08:21:41.959Z,9.27
2023-04-30T08:24:11.221Z,8.57
2023-04-30T08:26:40.312Z,7.33
2023-04-30T08:29:09.953Z,7.13
2023-04-30T08:31:43.113Z,7.97
2023-04-30T08:34:13.722Z,9.80
2023-04-30T08:36:46.222Z,9.13
2023-04-30T08:39:15.854Z,8.73
2023-04-30T08:41:56.409Z,7.97
2023-04-30T08:44:29.277Z,8.67
2023-04-30T08:47:01.604Z,8.53
2023-04-30T08:49:34.691Z,10.67
2023-04-30T08:52:07.597Z,10.60
2023-04-30T08:54:38.250Z,9.33
2023-04-30T08:57:10.651Z,9.53
2023-04-30T08:59:40.068Z,8.17
2023-04-30T09:02:13.560Z,8.13
2023-04-30T09:04:47.699Z,8.23
2023-04-30T09:07:19.838Z,7.10
2023-04-30T09:09:48.728Z,11.37
2023-04-30T09:12:20.350Z,9.97
2023-04-30T09:15:03.841Z,7.50
2023-04-30T09:17:38.919Z,7.13
2023-04-30T09:20:24.139Z,8.37
2023-04-30T09:23:08.968Z,8.07
2023-04-30T09:25:42.514Z,8.17
2023-04-30T09:28:16.762Z,21.87
2023-04-30T09:30:46.695Z,13.10
2023-04-30T09:33:17.555Z,8.17
2023-04-30T09:35:47.109Z,9.87
2023-04-30T09:38:31.117Z,10.37
2023-04-30T09:41:05.263Z,7.10
2023-04-30T09:43:34.141Z,9.53
2023-04-30T09:46:08.022Z,5.47
2023-04-30T09:48:45.982Z,10.90
2023-04-30T09:51:20.690Z,7.50
2023-04-30T09:53:52.084Z,7.70
2023-04-30T09:56:24.720Z,9.33
2023-04-30T09:58:55.947Z,9.93
2023-04-30T10:01:29.027Z,5.87
2023-04-30T10:04:00.614Z,5.93
2023-04-30T10:06:35.607Z,6.00
2023-04-30T10:09:08.267Z,7.50
2023-04-30T10:11:43.115Z,5.60
2023-04-30T10:14:20.079Z,8.30
2023-04-30T10:16:59.316Z,7.10
2023-04-30T10:19:37.643Z,6.47
2023-04-30T10:22:06.818Z,6.13
2023-04-30T10:24:39.718Z,7.37
2023-04-30T10:27:09.006Z,7.13
2023-04-30T10:29:37.714Z,8.73
2023-04-30T10:32:09.400Z,8.33
2023-04-30T10:34:56.961Z,8.07
2023-04-30T10:37:36.102Z,9.10
2023-04-30T10:40:09.324Z,6.83
2023-04-30T10:42:38.861Z,8.27
2023-04-30T10:45:12.958Z,6.37
2023-04-30T10:47:45.902Z,6.13
2023-04-30T10:50:18.056Z,6.80
2023-04-30T10:52:47.843Z,6.33
2023-04-30T10:55:19.894Z,6.10
2023-04-30T10:57:51.667Z,7.93
2023-04-30T11:00:25.961Z,5.50
2023-04-30T11:03:00.845Z,5.23
2023-04-30T11:05:39.976Z,7.30
2023-04-30T11:08:13.607Z,8.10
2023-04-30T11:11:01.064Z,5.30
2023-04-30T11:13:30.275Z,6.33
2023-04-30T11:16:05.682Z,6.83
2023-04-30T11:18:35.811Z,6.10
2023-04-30T11:21:07.331Z,5.70
2023-04-30T11:23:40.315Z,7.27
2023-04-30T11:26:12.972Z,6.47
2023-04-30T11:28:54.441Z,5.83
2023-04-30T11:31:25.288Z,6.90
2023-04-30T11:34:00.804Z,8.50
2023-04-30T11:36:33.959Z,5.73
2023-04-30T11:39:07.986Z,6.17
2023-04-30T11:41:55.812Z,5.70
2023-04-30T11:44:28.873Z,5.83
2023-04-30T11:47:03.094Z,4.43
2023-04-30T11:49:36.415Z,7.13
2023-04-30T11:52:08.580Z,5.50
2023-04-30T11:54:39.259Z,6.30
2023-04-30T11:57:08.251Z,5.57
2023-04-30T11:59:44.012Z,8.45
2023-04-30T12:02:19.309Z,5.88
2023-04-30T12:04:50.188Z,5.10
2023-04-30T12:07:24.135Z,5.65
2023-04-30T12:09:57.467Z,5.00
2023-04-30T12:12:32.133Z,6.95
2023-04-30T12:15:12.892Z,3.63
2023-04-30T12:17:42.275Z,4.65
2023-04-30T12:20:13.272Z,5.35
2023-04-30T12:22:45.155Z,5.78
2023-04-30T12:25:17.918Z,6.65
2023-04-30T12:27:49.607Z,6.05
2023-04-30T12:30:23.260Z,4.53
2023-04-30T12:32:59.208Z,4.85
2023-04-30T12:35:32.655Z,5.68
2023-04-30T12:38:10.563Z,5.22
2023-04-30T12:40:40.895Z,6.63
2023-04-30T12:43:10.785Z,4.47
2023-04-30T12:45:52.896Z,6.38
2023-04-30T12:48:25.085Z,5.20
2023-04-30T12:50:57.092Z,4.50
2023-04-30T12:53:27.595Z,7.22
2023-04-30T12:56:15.519Z,4.25
2023-04-30T12:58:50.895Z,3.88
2023-04-30T13:01:21.739Z,3.00
2023-04-30T13:03:50.813Z,5.28
2023-04-30T13:06:21.390Z,5.50
2023-04-30T13:08:58.573Z,5.43
2023-04-30T13:11:28.609Z,4.70
2023-04-30T13:14:00.583Z,4.70
2023-04-30T13:16:31.222Z,4.65
2023-04-30T13:19:00.364Z,6.75
2023-04-30T13:21:29.104Z,5.25
2023-04-30T13:23:59.956Z,4.82
2023-04-30T13:26:29.787Z,4.88
2023-04-30T13:28:58.943Z,4.82
2023-04-30T13:31:27.859Z,5.32
2023-04-30T13:33:57.539Z,5.82
2023-04-30T13:36:27.184Z,3.75
2023-04-30T13:38:55.990Z,3.88
2023-04-30T13:41:26.988Z,4.95
2023-04-30T13:43:56.362Z,3.88
2023-04-30T13:46:26.554Z,4.93
2023-04-30T13:48:56.181Z,4.18
2023-04-30T13:51:25.494Z,4.63
2023-04-30T13:53:54.640Z,5.93
2023-04-30T13:56:26.937Z,3.40
2023-04-30T13:58:55.858Z,5.20
2023-04-30T14:01:25.276Z,4.75
2023-04-30T14:03:54.131Z,4.75
2023-04-30T14:06:23.035Z,3.72
2023-04-30T14:08:53.569Z,3.70
2023-04-30T14:11:23.255Z,4.20
2023-04-30T14:13:53.932Z,5.13
2023-04-30T14:16:24.004Z,4.65
2023-04-30T14:18:52.875Z,2.65
2023-04-30T14:21:22.050Z,4.85
2023-04-30T14:23:52.243Z,4.68
2023-04-30T14:26:21.802Z,4.32
2023-04-30T14:28:50.547Z,5.22
2023-04-30T14:31:23.441Z,5.40
2023-04-30T14:33:52.140Z,6.10
2023-04-30T14:36:21.021Z,6.18
2023-04-30T14:38:49.728Z,3.92
2023-04-30T14:41:18.454Z,3.80
2023-04-30T14:43:47.365Z,4.75
2023-04-30T14:46:16.221Z,4.60
2023-04-30T14:48:46.601Z,4.22
2023-04-30T14:51:15.225Z,4.22
2023-04-30T14:53:43.915Z,3.42
2023-04-30T14:56:13.169Z,3.15
2023-04-30T14:58:41.886Z,4.75
2023-04-30T15:01:10.907Z,6.10
2023-04-30T15:03:40.174Z,3.00
2023-04-30T15:06:11.349Z,2.63
2023-04-30T15:08:40.857Z,5.78
2023-04-30T15:11:10.878Z,3.17
2023-04-30T15:13:40.263Z,5.30
2023-04-30T15:16:09.603Z,4.75
2023-04-30T15:18:40.559Z,7.95
2023-04-30T15:21:11.248Z,4.63
2023-04-30T15:23:40.113Z,4.63
2023-04-30T15:26:09.533Z,7.20
2023-04-30T15:28:38.628Z,4.50
2023-04-30T15:31:07.510Z,6.60
2023-04-30T15:33:39.735Z,4.70
2023-04-30T15:36:11.689Z,4.85
2023-04-30T15:38:40.744Z,5.55
2023-04-30T15:41:09.385Z,5.88
2023-04-30T15:43:38.471Z,4.82
2023-04-30T15:46:07.343Z,5.47
2023-04-30T15:48:35.979Z,6.57
2023-04-30T15:51:04.893Z,5.10
2023-04-30T15:53:35.182Z,4.45
2023-04-30T15:56:04.785Z,5.57
2023-04-30T15:58:33.566Z,5.15
2023-04-30T16:01:02.477Z,4.88
2023-04-30T16:03:32.534Z,4.93
2023-04-30T16:06:02.994Z,4.88
2023-04-30T16:08:31.936Z,6.95
2023-04-30T16:11:03.881Z,6.60
2023-04-30T16:13:32.722Z,5.53
2023-04-30T16:16:01.546Z,4.82
2023-04-30T16:18:30.917Z,4.45
2023-04-30T16:21:00.679Z,4.40
2023-04-30T16:23:29.483Z,18.55
2023-04-30T16:25:58.456Z,3.35
2023-04-30T16:28:28.684Z,3.13
2023-04-30T16:30:57.635Z,3.67
2023-04-30T16:33:26.579Z,4.75
2023-04-30T16:35:55.709Z,6.68
2023-04-30T16:38:25.515Z,5.68
2023-04-30T16:40:55.197Z,4.03
2023-04-30T16:43:24.404Z,5.00
2023-04-30T16:45:54.674Z,4.22
2023-04-30T16:48:23.669Z,2.28
2023-04-30T16:50:52.777Z,4.13
2023-04-30T16:53:22.261Z,7.07
2023-04-30T16:55:53.185Z,5.25
2023-04-30T16:58:23.306Z,3.03
2023-04-30T17:00:56.191Z,4.07
2023-04-30T17:03:25.427Z,4.40
2023-04-30T17:05:54.965Z,3.80
2023-04-30T17:08:23.747Z,7.82
2023-04-30T17:10:52.782Z,2.78
2023-04-30T17:13:21.667Z,5.83
2023-04-30T17:15:50.526Z,6.67
2023-04-30T17:18:20.840Z,4.63
2023-04-30T17:20:49.799Z,5.43
2023-04-30T17:23:19.460Z,6.13
2023-04-30T17:25:49.056Z,4.10
2023-04-30T17:28:17.769Z,3.77
2023-04-30T17:30:47.558Z,4.67
2023-04-30T17:33:16.228Z,5.13
2023-04-30T17:35:46.980Z,3.93
2023-04-30T17:38:15.749Z,4.17
2023-04-30T17:40:44.625Z,6.57
2023-04-30T17:43:13.536Z,3.40
2023-04-30T17:45:43.877Z,7.07
2023-04-30T17:48:13.001Z,5.27
2023-04-30T17:50:41.906Z,6.80
2023-04-30T17:53:12.295Z,3.90
2023-04-30T17:55:41.716Z,5.57
2023-04-30T17:58:11.577Z,7.33
2023-04-30T18:00:42.339Z,4.47
2023-04-30T18:03:11.359Z,5.20
2023-04-30T18:05:40.328Z,7.07
2023-04-30T18:08:10.282Z,8.60
2023-04-30T18:10:40.559Z,5.10
2023-04-30T18:13:10.339Z,4.67
2023-04-30T18:15:38.993Z,4.80
2023-04-30T18:18:08.159Z,4.43
2023-04-30T18:20:37.117Z,3.50
2023-04-30T18:23:08.431Z,3.90
2023-04-30T18:25:40.335Z,3.90
2023-04-30T18:28:09.255Z,5.67
2023-04-30T18:30:38.778Z,3.93
2023-04-30T18:33:09.135Z,6.67
2023-04-30T18:35:38.420Z,5.67
2023-04-30T18:38:08.215Z,7.17
2023-04-30T18:40:36.965Z,7.37
2023-04-30T18:43:07.359Z,8.67
2023-04-30T18:45:36.705Z,10.50
2023-04-30T18:48:06.043Z,8.10
2023-04-30T18:50:34.954Z,10.53
2023-04-30T18:53:03.774Z,9.10
2023-04-30T18:55:32.440Z,11.90
2023-04-30T18:58:01.434Z,11.73
2023-04-30T19:00:31.556Z,13.93
2023-04-30T19:03:00.714Z,14.70
2023-04-30T19:05:29.436Z,22.67
2023-04-30T19:08:00.851Z,25.50
2023-04-30T19:10:29.537Z,19.63
2023-04-30T19:12:58.572Z,15.90
2023-04-30T19:15:29.759Z,16.13
2023-04-30T19:17:59.920Z,16.90
2023-04-30T19:20:28.969Z,14.47
2023-04-30T19:22:57.702Z,24.20
2023-04-30T19:25:26.897Z,18.10
2023-04-30T19:27:56.454Z,15.93
2023-04-30T19:30:25.523Z,14.90
2023-04-30T19:32:55.297Z,16.47
2023-04-30T19:35:25.815Z,16.63
2023-04-30T19:37:55.705Z,19.17
2023-04-30T19:40:29.947Z,15.30
2023-04-30T19:42:59.768Z,18.50
2023-04-30T19:45:28.857Z,16.33
2023-04-30T19:47:57.735Z,15.43
2023-04-30T19:50:28.169Z,18.50
2023-04-30T19:52:57.035Z,16.53
2023-04-30T19:55:25.813Z,16.33
2023-04-30T19:57:54.572Z,17.57
2023-04-30T20:00:23.686Z,20.30
2023-04-30T20:02:52.762Z,18.40
2023-04-30T20:05:21.861Z,20.47
2023-04-30T20:07:51.942Z,17.40
2023-04-30T20:10:20.930Z,19.20
2023-04-30T20:12:54.054Z,18.53
2023-04-30T20:15:23.562Z,20.27
2023-04-30T20:17:53.531Z,16.97
2023-04-30T20:20:24.678Z,19.87
2023-04-30T20:22:56.589Z,16.87
2023-04-30T20:25:29.454Z,17.37
2023-04-30T20:27:58.107Z,15.37
2023-04-30T20:30:26.767Z,14.90
2023-04-30T20:32:55.682Z,17.30
2023-04-30T20:35:24.577Z,17.53
2023-04-30T20:37:55.905Z,17.33
2023-04-30T20:40:24.705Z,17.10
2023-04-30T20:42:53.466Z,16.00
2023-04-30T20:45:23.199Z,13.60
2023-04-30T20:47:51.919Z,19.27
2023-04-30T20:50:20.768Z,19.47
2023-04-30T20:52:49.415Z,15.17
2023-04-30T20:55:21.136Z,14.20
2023-04-30T20:57:50.709Z,14.17
2023-04-30T21:00:19.869Z,14.40
2023-04-30T21:02:48.648Z,16.57
2023-04-30T21:05:17.516Z,14.93
2023-04-30T21:07:46.387Z,12.43
2023-04-30T21:10:15.114Z,12.23
2023-04-30T21:12:45.369Z,13.00
2023-04-30T21:15:14.406Z,12.43
2023-04-30T21:17:43.105Z,18.37
2023-04-30T21:20:13.814Z,24.17
2023-04-30T21:22:42.525Z,25.30
2023-04-30T21:25:12.300Z,24.83
2023-04-30T21:27:41.424Z,20.53
2023-04-30T21:30:14.988Z,14.83
2023-04-30T21:32:47.166Z,13.50
2023-04-30T21:35:16.380Z,11.47
2023-04-30T21:37:45.116Z,12.60
2023-04-30T21:40:14.391Z,13.47
2023-04-30T21:42:43.007Z,13.93
2023-04-30T21:45:13.438Z,15.80
2023-04-30T21:47:42.677Z,21.60
2023-04-30T21:50:12.466Z,21.57
2023-04-30T21:52:41.651Z,21.23
2023-04-30T21:55:11.204Z,19.83
2023-04-30T21:57:39.830Z,21.47
2023-04-30T22:00:14.615Z,27.73
2023-04-30T22:02:51.287Z,21.50
2023-04-30T22:05:21.142Z,20.57
2023-04-30T22:07:49.943Z,26.03
2023-04-30T22:10:18.625Z,28.87
2023-04-30T22:12:48.134Z,18.37
2023-04-30T22:15:16.986Z,14.57
2023-04-30T22:17:46.340Z,14.13
2023-04-30T22:20:16.765Z,14.70
2023-04-30T22:22:45.459Z,13.53
2023-04-30T22:25:14.408Z,12.27
2023-04-30T22:27:43.469Z,14.07
2023-04-30T22:30:13.009Z,18.43
2023-04-30T22:32:42.419Z,15.93
2023-04-30T22:35:12.632Z,19.20
2023-04-30T22:37:43.002Z,16.80
2023-04-30T22:40:12.633Z,16.17
2023-04-30T22:42:42.277Z,18.13
2023-04-30T22:45:12.105Z,19.50
2023-04-30T22:47:42.479Z,18.90
2023-04-30T22:50:12.063Z,16.20
2023-04-30T22:52:42.344Z,17.23
2023-04-30T22:55:11.688Z,16.20
2023-04-30T22:57:40.392Z,18.03
2023-04-30T23:00:11.689Z,18.90
2023-04-30T23:02:40.403Z,19.60
2023-04-30T23:05:10.046Z,22.10
2023-04-30T23:07:38.953Z,20.20
2023-04-30T23:10:10.245Z,21.73
2023-04-30T23:12:38.941Z,23.00
2023-04-30T23:15:08.664Z,23.83
2023-04-30T23:17:37.424Z,23.70
2023-04-30T23:20:08.020Z,20.30
2023-04-30T23:22:36.756Z,33.70
2023-04-30T23:25:05.826Z,28.83
2023-04-30T23:27:36.140Z,23.87
2023-04-30T23:30:05.729Z,27.03
2023-04-30T23:32:34.504Z,27.87
2023-04-30T23:35:03.458Z,24.03
2023-04-30T23:37:32.198Z,31.23
2023-04-30T23:40:01.497Z,15.17
2023-04-30T23:42:30.282Z,21.00
2023-04-30T23:45:00.381Z,14.87
2023-04-30T23:47:30.572Z,19.90
2023-04-30T23:49:59.282Z,23.60
2023-04-30T23:52:27.932Z,18.60
2023-04-30T23:54:56.894Z,18.87
2023-04-30T23:57:27.633Z,23.73
2023-04-30T23:59:56.985Z,16.60
